createdAt,value
2022-09-15T00:01:29.345Z,21.60
2022-09-15T00:03:58.005Z,21.00
2022-09-15T00:06:26.602Z,21.00
2022-09-15T00:08:55.516Z,21.40
2022-09-15T00:11:25.903Z,21.50
2022-09-15T00:13:55.279Z,21.50
2022-09-15T00:16:24.725Z,21.40
2022-09-15T00:18:53.647Z,21.40
2022-09-15T00:21:23.929Z,21.20
2022-09-15T00:23:53.060Z,21.50
2022-09-15T00:26:23.791Z,21.20
2022-09-15T00:28:52.767Z,21.20
2022-09-15T00:31:22.738Z,21.00
2022-09-15T00:33:53.222Z,20.90
2022-09-15T00:36:22.262Z,21.10
2022-09-15T00:38:51.689Z,20.60
2022-09-15T00:41:22.011Z,20.50
2022-09-15T00:43:57.872Z,20.40
2022-09-15T00:46:30.756Z,20.50
2022-09-15T00:49:09.978Z,20.40
2022-09-15T00:51:42.867Z,20.30
2022-09-15T00:54:12.995Z,20.40
2022-09-15T00:56:42.652Z,20.30
2022-09-15T00:59:12.842Z,20.40
2022-09-15T01:01:42.320Z,20.30
2022-09-15T01:04:11.163Z,20.20
2022-09-15T01:06:43.919Z,20.20
2022-09-15T01:09:17.008Z,20.50
2022-09-15T01:11:45.640Z,20.60
2022-09-15T01:14:14.304Z,20.70
2022-09-15T01:16:59.714Z,20.60
2022-09-15T01:19:44.497Z,20.80
2022-09-15T01:22:30.124Z,20.80
2022-09-15T01:25:03.150Z,20.60
2022-09-15T01:27:51.491Z,21.00
2022-09-15T01:30:20.902Z,21.00
2022-09-15T01:33:09.250Z,21.10
2022-09-15T01:35:42.456Z,21.30
2022-09-15T01:38:18.740Z,21.30
2022-09-15T01:40:48.896Z,21.40
2022-09-15T01:43:19.567Z,21.40
2022-09-15T01:45:49.975Z,21.30
2022-09-15T01:48:20.218Z,21.20
2022-09-15T01:50:50.461Z,21.20
2022-09-15T01:53:20.999Z,21.30
2022-09-15T01:55:54.185Z,21.40
2022-09-15T01:58:23.301Z,21.30
2022-09-15T02:00:56.395Z,21.30
2022-09-15T02:03:26.926Z,21.40
2022-09-15T02:05:58.733Z,21.40
2022-09-15T02:08:28.946Z,21.00
2022-09-15T02:11:17.293Z,21.10
2022-09-15T02:13:48.995Z,21.20
2022-09-15T02:16:20.167Z,20.60
2022-09-15T02:18:53.590Z,20.60
2022-09-15T02:21:24.821Z,20.90
2022-09-15T02:25:43.390Z,21.20
2022-09-15T02:28:16.012Z,21.30
2022-09-15T02:30:48.021Z,21.40
2022-09-15T02:33:20.552Z,21.40
2022-09-15T02:35:51.935Z,21.50
2022-09-15T02:38:21.922Z,21.50
2022-09-15T02:40:56.470Z,21.50
2022-09-15T02:43:23.603Z,20.90
2022-09-15T02:45:54.762Z,20.70
2022-09-15T02:48:25.517Z,20.90
2022-09-15T02:50:54.976Z,21.20
2022-09-15T02:53:24.430Z,21.20
2022-09-15T02:55:53.895Z,20.90
2022-09-15T02:58:23.935Z,20.80
2022-09-15T03:00:55.200Z,20.90
2022-09-15T03:03:25.086Z,20.40
2022-09-15T03:05:54.544Z,20.40
2022-09-15T03:08:24.064Z,20.60
2022-09-15T03:10:53.884Z,20.60
2022-09-15T03:13:23.415Z,20.40
2022-09-15T03:15:52.956Z,20.50
2022-09-15T03:18:22.437Z,20.70
2022-09-15T03:20:54.953Z,20.70
2022-09-15T03:23:24.446Z,20.40
2022-09-15T03:25:53.889Z,20.50
2022-09-15T03:28:23.344Z,20.60
2022-09-15T03:30:53.346Z,20.80
2022-09-15T03:33:24.529Z,21.00
2022-09-15T03:35:54.975Z,21.10
2022-09-15T03:38:24.910Z,21.20
2022-09-15T03:40:59.360Z,20.70
2022-09-15T03:43:30.569Z,20.80
2022-09-15T03:46:00.804Z,21.10
2022-09-15T03:48:33.002Z,21.20
2022-09-15T03:51:03.812Z,21.30
2022-09-15T03:53:34.812Z,21.30
2022-09-15T03:56:22.370Z,21.30
2022-09-15T03:58:52.589Z,21.00
2022-09-15T04:01:23.568Z,20.80
2022-09-15T04:03:53.657Z,20.90
2022-09-15T04:06:24.904Z,21.00
2022-09-15T04:08:55.411Z,21.00
2022-09-15T04:11:25.303Z,20.60
2022-09-15T04:13:55.600Z,20.80
2022-09-15T04:16:28.664Z,20.90
2022-09-15T04:18:58.573Z,20.90
2022-09-15T04:21:28.288Z,21.00
2022-09-15T04:23:57.993Z,21.00
2022-09-15T04:26:36.427Z,21.00
2022-09-15T04:29:07.989Z,21.00
2022-09-15T04:31:37.508Z,21.00
2022-09-15T04:34:07.040Z,20.90
2022-09-15T04:36:36.494Z,21.00
2022-09-15T04:39:06.764Z,21.00
2022-09-15T04:41:36.218Z,21.00
2022-09-15T04:44:05.998Z,21.00
2022-09-15T04:46:35.564Z,21.00
2022-09-15T04:49:05.100Z,21.00
2022-09-15T04:51:34.639Z,21.00
2022-09-15T04:54:04.248Z,21.00
2022-09-15T04:56:33.810Z,21.00
2022-09-15T04:59:04.299Z,21.10
2022-09-15T05:01:36.266Z,21.10
2022-09-15T05:04:05.985Z,21.10
2022-09-15T05:06:35.937Z,21.00
2022-09-15T05:09:10.299Z,21.00
2022-09-15T05:11:39.346Z,21.00
2022-09-15T05:14:09.666Z,20.90
2022-09-15T05:16:40.964Z,20.90
2022-09-15T05:19:11.714Z,21.00
2022-09-15T05:21:41.267Z,21.00
2022-09-15T05:24:10.796Z,21.00
2022-09-15T05:26:40.379Z,21.00
2022-09-15T05:29:10.005Z,21.00
2022-09-15T05:31:39.497Z,21.00
2022-09-15T05:34:09.056Z,21.10
2022-09-15T05:36:38.568Z,21.10
2022-09-15T05:39:08.025Z,21.10
2022-09-15T05:41:37.484Z,21.10
2022-09-15T05:44:07.018Z,21.10
2022-09-15T05:46:36.612Z,21.10
2022-09-15T05:49:07.093Z,21.10
2022-09-15T05:51:37.190Z,21.10
2022-09-15T05:54:07.677Z,21.00
2022-09-15T05:56:37.190Z,21.10
2022-09-15T05:59:06.637Z,21.10
2022-09-15T06:01:36.371Z,21.20
2022-09-15T06:04:06.523Z,21.20
2022-09-15T06:06:36.061Z,21.10
2022-09-15T06:09:07.511Z,21.00
2022-09-15T06:11:37.045Z,20.90
2022-09-15T06:14:06.763Z,21.10
2022-09-15T06:16:36.907Z,21.10
2022-09-15T06:19:06.640Z,21.10
2022-09-15T06:21:36.173Z,21.10
2022-09-15T06:24:07.509Z,21.20
2022-09-15T06:26:37.053Z,21.20
2022-09-15T06:29:06.832Z,21.00
2022-09-15T06:31:37.127Z,21.00
2022-09-15T06:34:09.836Z,21.20
2022-09-15T06:36:40.477Z,21.20
2022-09-15T06:39:10.085Z,21.20
2022-09-15T06:42:00.731Z,21.10
2022-09-15T06:44:16.481Z,21.10
2022-09-15T06:46:46.001Z,21.10
2022-09-15T06:49:16.032Z,21.10
2022-09-15T06:51:45.627Z,21.20
2022-09-15T06:54:17.552Z,21.20
2022-09-15T06:56:47.402Z,21.30
2022-09-15T06:59:17.805Z,21.40
2022-09-15T07:01:47.424Z,21.00
2022-09-15T07:04:16.984Z,20.90
2022-09-15T07:06:46.603Z,21.10
2022-09-15T07:09:16.184Z,21.30
2022-09-15T07:11:46.011Z,21.40
2022-09-15T07:14:16.706Z,21.30
2022-09-15T07:16:46.243Z,21.40
2022-09-15T07:19:15.919Z,21.50
2022-09-15T07:21:45.379Z,21.50
2022-09-15T07:24:17.634Z,21.60
2022-09-15T07:26:47.088Z,21.60
2022-09-15T07:29:16.723Z,21.50
2022-09-15T07:31:46.369Z,21.40
2022-09-15T07:34:15.896Z,21.60
2022-09-15T07:36:45.367Z,21.90
2022-09-15T07:39:14.839Z,22.30
2022-09-15T07:41:44.298Z,22.50
2022-09-15T07:44:14.462Z,22.40
2022-09-15T07:46:44.080Z,22.80
2022-09-15T07:49:13.690Z,23.60
2022-09-15T07:51:45.892Z,23.70
2022-09-15T07:54:19.380Z,22.40
2022-09-15T07:56:46.644Z,22.70
2022-09-15T07:59:16.173Z,23.30
2022-09-15T08:01:45.672Z,24.00
2022-09-15T08:04:15.212Z,24.10
2022-09-15T08:06:45.674Z,24.90
2022-09-15T08:09:16.817Z,25.20
2022-09-15T08:11:46.328Z,24.50
2022-09-15T08:14:15.827Z,25.40
2022-09-15T08:16:45.384Z,25.90
2022-09-15T08:19:14.812Z,26.10
2022-09-15T08:21:44.265Z,26.70
2022-09-15T08:24:13.840Z,27.00
2022-09-15T08:26:43.303Z,27.30
2022-09-15T08:29:13.805Z,27.30
2022-09-15T08:31:44.933Z,27.60
2022-09-15T08:34:17.381Z,27.50
2022-09-15T08:36:46.806Z,27.60
2022-09-15T08:39:16.298Z,27.90
2022-09-15T08:41:50.021Z,28.30
2022-09-15T08:44:39.236Z,28.00
2022-09-15T08:47:14.722Z,27.50
2022-09-15T08:50:02.502Z,26.90
2022-09-15T08:52:40.909Z,26.90
2022-09-15T08:55:45.651Z,28.30
2022-09-15T08:58:18.271Z,29.30
2022-09-15T09:00:52.442Z,28.60
2022-09-15T09:03:48.601Z,28.90
2022-09-15T09:06:40.791Z,29.10
2022-09-15T09:09:22.408Z,29.90
2022-09-15T09:12:13.120Z,30.50
2022-09-15T09:14:54.497Z,30.80
2022-09-15T09:17:38.849Z,30.80
2022-09-15T09:20:33.607Z,30.40
2022-09-15T09:23:06.099Z,30.20
2022-09-15T09:25:36.829Z,31.00
2022-09-15T09:28:08.676Z,31.40
2022-09-15T09:30:38.933Z,31.50
2022-09-15T09:33:28.192Z,31.30
2022-09-15T09:36:01.527Z,31.70
2022-09-15T09:38:33.552Z,32.00
2022-09-15T09:41:06.285Z,32.00
2022-09-15T09:43:35.874Z,31.60
2022-09-15T09:46:15.853Z,32.00
2022-09-15T09:48:57.111Z,32.00
2022-09-15T09:51:39.070Z,32.00
2022-09-15T09:54:16.008Z,32.10
2022-09-15T09:56:46.477Z,31.80
2022-09-15T09:59:46.609Z,32.40
2022-09-15T10:02:21.552Z,32.80
2022-09-15T10:04:54.069Z,32.90
2022-09-15T10:07:28.247Z,32.00
2022-09-15T10:10:00.535Z,32.60
2022-09-15T10:12:36.429Z,33.00
2022-09-15T10:15:08.774Z,33.50
2022-09-15T10:17:41.298Z,33.20
2022-09-15T10:20:30.368Z,33.60
2022-09-15T10:23:17.740Z,33.20
2022-09-15T10:25:59.268Z,33.10
2022-09-15T10:28:23.097Z,33.40
2022-09-15T10:31:14.135Z,33.40
2022-09-15T10:33:46.293Z,34.00
2022-09-15T10:36:21.255Z,33.40
2022-09-15T10:38:53.252Z,33.30
2022-09-15T10:41:31.706Z,33.20
2022-09-15T10:44:19.004Z,33.10
2022-09-15T10:47:00.428Z,33.70
2022-09-15T10:49:35.556Z,34.20
2022-09-15T10:52:19.903Z,34.00
2022-09-15T10:55:00.090Z,33.70
2022-09-15T10:58:01.115Z,33.60
2022-09-15T11:00:33.719Z,33.90
2022-09-15T11:03:28.527Z,33.80
2022-09-15T11:06:16.443Z,33.70
2022-09-15T11:09:03.789Z,33.90
2022-09-15T11:11:54.735Z,33.70
2022-09-15T11:14:33.379Z,33.80
2022-09-15T11:17:42.300Z,34.30
2022-09-15T11:20:35.816Z,34.10
2022-09-15T11:23:23.127Z,34.40
2022-09-15T11:25:56.934Z,34.80
2022-09-15T11:28:38.426Z,34.40
2022-09-15T11:31:16.954Z,34.20
2022-09-15T11:33:50.024Z,34.10
2022-09-15T11:36:22.658Z,34.30
2022-09-15T11:39:10.689Z,34.60
2022-09-15T11:41:50.576Z,34.80
2022-09-15T11:44:34.883Z,34.40
2022-09-15T11:47:27.026Z,34.80
2022-09-15T11:50:11.548Z,34.80
2022-09-15T11:52:52.353Z,34.50
2022-09-15T11:55:36.949Z,34.50
2022-09-15T11:58:27.381Z,34.50
2022-09-15T12:01:05.683Z,35.40
2022-09-15T12:03:46.811Z,35.20
2022-09-15T12:06:28.323Z,34.70
2022-09-15T12:09:00.921Z,34.50
2022-09-15T12:11:32.804Z,34.40
2022-09-15T12:14:05.281Z,34.90
2022-09-15T12:16:36.104Z,35.00
2022-09-15T12:19:08.604Z,34.90
2022-09-15T12:22:02.214Z,35.00
2022-09-15T12:24:38.282Z,34.00
2022-09-15T12:27:10.830Z,34.20
2022-09-15T12:29:42.614Z,34.40
2022-09-15T12:32:24.946Z,34.70
2022-09-15T12:35:19.148Z,34.10
2022-09-15T12:37:51.880Z,34.80
2022-09-15T12:40:33.717Z,34.90
2022-09-15T12:43:06.518Z,34.70
2022-09-15T12:45:38.565Z,34.80
2022-09-15T12:48:16.999Z,34.30
2022-09-15T12:50:55.075Z,33.90
2022-09-15T12:53:30.491Z,34.40
2022-09-15T12:56:03.655Z,34.80
2022-09-15T12:58:39.408Z,34.50
2022-09-15T13:01:26.870Z,34.50
2022-09-15T13:04:02.292Z,34.60
2022-09-15T13:06:35.325Z,34.10
2022-09-15T13:09:07.848Z,34.40
2022-09-15T13:11:40.752Z,34.10
2022-09-15T13:14:16.303Z,33.70
2022-09-15T13:17:00.791Z,34.10
2022-09-15T13:19:41.179Z,34.00
2022-09-15T13:22:27.229Z,33.80
2022-09-15T13:25:14.970Z,33.90
2022-09-15T13:27:56.046Z,34.10
2022-09-15T13:30:48.446Z,33.70
2022-09-15T13:39:24.102Z,34.00
2022-09-15T13:42:16.085Z,34.20
2022-09-15T13:45:12.621Z,33.60
2022-09-15T13:47:53.700Z,33.80
2022-09-15T13:50:32.320Z,33.00
2022-09-15T13:53:25.832Z,33.00
2022-09-15T13:55:55.865Z,33.30
2022-09-15T14:01:06.877Z,32.30
2022-09-15T14:03:49.043Z,32.60
2022-09-15T14:06:24.579Z,33.20
2022-09-15T14:08:57.172Z,32.80
2022-09-15T14:11:34.251Z,32.70
2022-09-15T14:14:05.708Z,32.90
2022-09-15T14:16:39.149Z,33.20
2022-09-15T14:19:37.709Z,32.30
2022-09-15T14:22:31.277Z,31.80
2022-09-15T14:25:09.922Z,31.80
2022-09-15T14:27:42.416Z,32.00
2022-09-15T14:30:20.781Z,32.50
2022-09-15T14:32:52.516Z,32.00
2022-09-15T14:35:25.989Z,31.30
2022-09-15T14:37:56.779Z,31.10
2022-09-15T14:40:30.018Z,30.80
2022-09-15T14:42:58.754Z,30.70
2022-09-15T14:48:17.860Z,30.30
2022-09-15T14:50:48.418Z,30.40
2022-09-15T14:53:24.396Z,30.60
2022-09-15T14:55:57.253Z,30.50
2022-09-15T14:58:30.173Z,30.70
2022-09-15T15:01:03.661Z,30.70
2022-09-15T15:03:39.772Z,30.60
2022-09-15T15:06:34.932Z,30.70
2022-09-15T15:08:41.624Z,30.90
2022-09-15T15:11:11.957Z,30.60
2022-09-15T15:13:42.854Z,30.70
2022-09-15T15:16:14.948Z,31.20
2022-09-15T15:18:44.222Z,31.40
2022-09-15T15:21:31.252Z,31.30
2022-09-15T15:23:59.911Z,31.30
2022-09-15T15:26:35.949Z,31.30
2022-09-15T15:29:06.048Z,31.20
2022-09-15T15:31:36.246Z,31.40
2022-09-15T15:34:06.624Z,31.20
2022-09-15T15:36:36.650Z,31.30
2022-09-15T15:39:07.083Z,31.30
2022-09-15T15:41:37.381Z,31.00
2022-09-15T15:44:10.107Z,30.60
2022-09-15T15:46:40.473Z,30.30
2022-09-15T15:49:14.173Z,30.20
2022-09-15T15:51:43.313Z,30.20
2022-09-15T15:54:11.941Z,30.40
2022-09-15T15:56:40.504Z,30.30
2022-09-15T15:59:10.555Z,30.60
2022-09-15T16:01:39.436Z,30.40
2022-09-15T16:04:08.890Z,30.40
2022-09-15T16:06:37.572Z,30.30
2022-09-15T16:09:06.395Z,29.90
2022-09-15T16:11:35.031Z,29.80
2022-09-15T16:14:03.945Z,29.60
2022-09-15T16:16:32.584Z,29.40
2022-09-15T16:19:01.426Z,29.70
2022-09-15T16:21:32.471Z,29.80
2022-09-15T16:24:01.022Z,29.90
2022-09-15T16:26:32.903Z,30.00
2022-09-15T16:29:01.750Z,30.00
2022-09-15T16:31:31.054Z,29.90
2022-09-15T16:33:59.677Z,29.80
2022-09-15T16:36:28.450Z,29.50
2022-09-15T16:38:57.004Z,29.50
2022-09-15T16:41:25.811Z,29.50
2022-09-15T16:43:55.884Z,29.60
2022-09-15T16:46:25.316Z,29.50
2022-09-15T16:48:54.115Z,29.50
2022-09-15T16:51:28.925Z,29.20
2022-09-15T16:53:53.980Z,29.20
2022-09-15T16:56:22.745Z,29.10
2022-09-15T16:58:58.866Z,29.00
2022-09-15T17:01:25.119Z,28.90
2022-09-15T17:03:53.731Z,28.70
2022-09-15T17:06:22.470Z,28.50
2022-09-15T17:08:51.546Z,28.40
2022-09-15T17:11:22.262Z,28.30
2022-09-15T17:13:50.813Z,28.30
2022-09-15T17:16:20.338Z,28.30
2022-09-15T17:18:49.110Z,28.30
2022-09-15T17:22:09.950Z,28.20
2022-09-15T17:24:39.406Z,28.20
2022-09-15T17:27:08.827Z,28.20
2022-09-15T17:29:38.332Z,28.20
2022-09-15T17:32:09.594Z,28.20
2022-09-15T17:34:39.029Z,28.10
2022-09-15T17:37:08.664Z,27.90
2022-09-15T17:39:38.116Z,28.00
2022-09-15T17:42:09.015Z,28.00
2022-09-15T17:44:38.465Z,28.00
2022-09-15T17:47:07.977Z,28.10
2022-09-15T17:49:37.408Z,28.00
2022-09-15T17:52:07.379Z,27.90
2022-09-15T17:54:36.898Z,27.90
2022-09-15T17:57:06.331Z,27.80
2022-09-15T17:59:35.801Z,27.90
2022-09-15T18:02:10.024Z,27.80
2022-09-15T18:04:39.630Z,27.80
2022-09-15T18:07:11.372Z,27.70
2022-09-15T18:09:40.848Z,27.60
2022-09-15T18:12:12.475Z,27.50
2022-09-15T18:14:42.414Z,27.50
2022-09-15T18:17:12.245Z,27.50
2022-09-15T18:19:42.469Z,27.40
2022-09-15T18:22:14.045Z,27.40
2022-09-15T18:24:43.506Z,27.30
2022-09-15T18:27:12.930Z,27.30
2022-09-15T18:29:42.453Z,27.20
2022-09-15T18:32:11.900Z,27.30
2022-09-15T18:34:41.321Z,27.20
2022-09-15T18:37:10.739Z,27.20
2022-09-15T18:39:41.064Z,27.20
2022-09-15T18:42:11.158Z,27.10
2022-09-15T18:44:40.593Z,27.10
2022-09-15T18:47:10.026Z,27.20
2022-09-15T18:49:39.477Z,27.20
2022-09-15T18:52:08.976Z,27.20
2022-09-15T18:54:38.425Z,27.20
2022-09-15T18:57:07.971Z,27.10
2022-09-15T18:59:37.478Z,27.00
2022-09-15T19:02:07.786Z,26.80
2022-09-15T19:04:40.524Z,26.70
2022-09-15T19:07:09.321Z,26.70
2022-09-15T19:09:39.928Z,26.40
2022-09-15T19:12:09.718Z,26.30
2022-09-15T19:14:41.313Z,26.30
2022-09-15T19:17:10.341Z,26.10
2022-09-15T19:19:40.346Z,26.20
2022-09-15T19:22:10.110Z,26.20
2022-09-15T19:24:39.551Z,26.10
2022-09-15T19:27:10.022Z,26.00
2022-09-15T19:29:39.821Z,25.90
2022-09-15T19:32:12.809Z,25.80
2022-09-15T19:34:42.415Z,25.90
2022-09-15T19:37:18.329Z,25.80
2022-09-15T19:39:45.325Z,25.90
2022-09-15T19:44:45.190Z,25.90
2022-09-15T19:47:14.684Z,25.80
2022-09-15T19:49:44.291Z,25.80
2022-09-15T19:52:13.717Z,25.80
2022-09-15T19:54:43.195Z,25.70
2022-09-15T19:57:12.742Z,25.70
2022-09-15T19:59:44.936Z,25.60
2022-09-15T20:02:14.605Z,25.50
2022-09-15T20:04:44.705Z,25.50
2022-09-15T20:07:14.164Z,25.40
2022-09-15T20:09:43.643Z,25.50
2022-09-15T20:12:13.222Z,25.50
2022-09-15T20:14:42.892Z,25.40
2022-09-15T20:17:12.414Z,25.40
2022-09-15T20:19:42.586Z,25.30
2022-09-15T20:22:12.212Z,25.30
2022-09-15T20:24:41.719Z,25.20
2022-09-15T20:27:11.940Z,25.10
2022-09-15T20:29:41.705Z,24.90
2022-09-15T20:32:11.253Z,24.60
2022-09-15T20:34:40.743Z,24.70
2022-09-15T20:37:13.184Z,24.50
2022-09-15T20:39:46.105Z,24.30
2022-09-15T20:42:15.632Z,24.20
2022-09-15T20:44:45.146Z,24.30
2022-09-15T20:47:14.585Z,24.20
2022-09-15T20:49:44.202Z,24.40
2022-09-15T20:52:13.623Z,24.20
2022-09-15T20:54:44.220Z,24.30
2022-09-15T20:57:13.720Z,24.30
2022-09-15T20:59:43.139Z,24.30
2022-09-15T21:02:12.671Z,24.20
2022-09-15T21:04:42.679Z,24.40
2022-09-15T21:07:12.171Z,24.30
2022-09-15T21:09:41.667Z,24.20
2022-09-15T21:12:11.094Z,24.20
2022-09-15T21:14:40.540Z,24.00
2022-09-15T21:17:09.976Z,24.10
2022-09-15T21:19:40.270Z,24.10
2022-09-15T21:22:09.778Z,24.10
2022-09-15T21:24:39.314Z,24.10
2022-09-15T21:27:27.262Z,24.00
2022-09-15T21:29:56.914Z,23.90
2022-09-15T21:32:26.615Z,24.00
2022-09-15T21:34:56.165Z,23.80
2022-09-15T21:37:27.982Z,23.80
2022-09-15T21:39:57.821Z,23.90
2022-09-15T21:42:27.420Z,23.70
2022-09-15T21:44:57.184Z,23.50
2022-09-15T21:47:27.136Z,23.50
2022-09-15T21:49:56.578Z,23.40
2022-09-15T21:52:26.059Z,23.50
2022-09-15T21:54:55.496Z,23.30
2022-09-15T21:57:24.916Z,23.40
2022-09-15T21:59:53.640Z,23.30
2022-09-15T22:02:23.065Z,23.20
2022-09-15T22:04:52.581Z,23.20
2022-09-15T22:07:22.088Z,23.30
2022-09-15T22:09:51.574Z,23.20
2022-09-15T22:12:21.469Z,23.30
2022-09-15T22:14:52.446Z,23.30
2022-09-15T22:17:21.873Z,23.30
2022-09-15T22:19:51.301Z,23.40
2022-09-15T22:22:20.836Z,23.30
2022-09-15T22:24:50.254Z,23.40
2022-09-15T22:27:19.711Z,23.30
2022-09-15T22:29:51.618Z,23.30
2022-09-15T22:32:21.045Z,23.30
2022-09-15T22:34:50.476Z,23.40
2022-09-15T22:37:20.349Z,23.20
2022-09-15T22:39:59.422Z,23.20
2022-09-15T22:42:21.408Z,23.00
2022-09-15T22:44:50.895Z,23.10
2022-09-15T22:47:20.564Z,23.00
2022-09-15T22:49:50.092Z,23.00
2022-09-15T22:52:21.384Z,22.90
2022-09-15T22:54:50.814Z,22.90
2022-09-15T22:57:20.323Z,22.80
2022-09-15T22:59:49.739Z,22.90
2022-09-15T23:02:19.259Z,22.90
2022-09-15T23:04:48.731Z,22.80
2022-09-15T23:07:18.160Z,22.80
2022-09-15T23:09:47.727Z,22.70
2022-09-15T23:12:17.888Z,22.70
2022-09-15T23:14:47.331Z,22.60
2022-09-15T23:17:16.772Z,22.50
2022-09-15T23:19:46.203Z,22.50
2022-09-15T23:22:16.240Z,22.50
2022-09-15T23:24:45.679Z,22.40
2022-09-15T23:27:15.288Z,22.50
2022-09-15T23:29:44.857Z,22.40
2022-09-15T23:32:14.284Z,22.30
2022-09-15T23:34:43.710Z,22.30
2022-09-15T23:37:13.284Z,22.20
2022-09-15T23:39:42.710Z,22.10
2022-09-15T23:42:14.536Z,22.10
2022-09-15T23:44:43.739Z,22.10
2022-09-15T23:47:13.163Z,22.10
2022-09-15T23:49:43.023Z,22.10
2022-09-15T23:52:12.435Z,22.10
2022-09-15T23:54:41.938Z,22.20
2022-09-15T23:57:12.207Z,22.10
2022-09-15T23:59:41.636Z,22.10
